Buggenhout, Belgium
Current Conditions -  °F | °C
As of 10:50 AM on Friday 19 Dec 2014 (Local Time) from EBAW Reporting Station
Light Rain Light Rain  
Wind Chill: 52°   Ceiling: 800
Heat Index: 52°   Visibility: 4mi
Dew Point: 50°   Wind: 16mph
Humidity: 94%   Direction: 240°WSW
Pressure: 29.85"   Gusts: NA
Location:  51.02°N, 4.2°E
Report Text: EBAW 190950Z 24014KT 210V270 6000 -DZRA FEW006 SCT007 BKN008 11/10 Q1011 TEMPO 23017G27KT 2500 DZRA BKN007
Loading
Personal Weather Stations






























Interactive Weather Map New forecast layout! Learn more

10-Day Weather Forecast

Advertisements
Track Severe Weather on mobile